createdAt,value
2023-01-29T00:00:42.848Z,5.80
2023-01-29T00:05:36.860Z,5.60
2023-01-29T00:10:29.663Z,5.80
2023-01-29T00:15:22.613Z,6.30
2023-01-29T00:20:16.872Z,5.80
2023-01-29T00:25:11.847Z,5.40
2023-01-29T00:30:14.933Z,5.00
2023-01-29T00:35:09.742Z,5.20
2023-01-29T00:40:04.137Z,6.40
2023-01-29T00:45:00.088Z,5.80
2023-01-29T00:49:55.911Z,5.60
2023-01-29T00:54:48.731Z,6.40
2023-01-29T00:59:41.483Z,5.30
2023-01-29T01:04:35.118Z,7.60
2023-01-29T01:09:44.959Z,7.70
2023-01-29T01:14:37.958Z,6.70
2023-01-29T01:19:30.797Z,6.50
2023-01-29T01:24:23.662Z,6.70
2023-01-29T01:29:16.582Z,4.90
2023-01-29T01:34:10.429Z,6.50
2023-01-29T01:39:03.213Z,5.10
2023-01-29T01:44:02.139Z,5.60
2023-01-29T01:49:02.925Z,5.20
2023-01-29T01:54:08.015Z,5.10
2023-01-29T01:59:01.084Z,4.60
2023-01-29T02:04:17.076Z,5.30
2023-01-29T02:09:33.572Z,5.10
2023-01-29T02:14:26.531Z,6.10
2023-01-29T02:19:41.759Z,5.70
2023-01-29T02:25:10.089Z,4.00
2023-01-29T02:30:18.477Z,5.30
2023-01-29T02:35:30.653Z,4.70
2023-01-29T02:40:32.521Z,3.80
2023-01-29T02:45:53.691Z,4.70
2023-01-29T02:50:58.102Z,7.10
2023-01-29T02:56:08.060Z,7.00
2023-01-29T03:01:09.122Z,5.80
2023-01-29T03:06:08.839Z,4.90
2023-01-29T03:11:05.983Z,5.20
2023-01-29T03:16:19.246Z,6.00
2023-01-29T03:21:36.868Z,4.20
2023-01-29T03:26:47.855Z,5.20
2023-01-29T03:32:00.477Z,5.60
2023-01-29T03:36:59.165Z,5.80
2023-01-29T03:42:10.542Z,4.90
2023-01-29T03:47:24.199Z,6.20
2023-01-29T03:52:22.984Z,9.10
2023-01-29T03:57:32.599Z,8.20
2023-01-29T04:02:37.072Z,7.20
2023-01-29T04:12:52.487Z,9.70
2023-01-29T04:17:52.782Z,12.90
2023-01-29T04:23:27.373Z,8.70
2023-01-29T04:28:29.515Z,8.10
2023-01-29T04:33:48.839Z,6.70
2023-01-29T04:39:12.069Z,6.70
2023-01-29T04:44:28.637Z,5.20
2023-01-29T04:49:43.291Z,5.70
2023-01-29T04:54:51.128Z,5.10
2023-01-29T04:59:49.479Z,5.60
2023-01-29T05:04:45.657Z,5.70
2023-01-29T05:09:40.521Z,5.40
2023-01-29T05:14:36.260Z,5.60
2023-01-29T05:19:29.107Z,5.00
2023-01-29T05:24:26.801Z,5.50
2023-01-29T05:29:19.633Z,5.90
2023-01-29T05:34:12.451Z,5.80
2023-01-29T05:39:05.750Z,6.00
2023-01-29T05:43:58.562Z,6.50
2023-01-29T05:48:55.831Z,6.00
2023-01-29T05:53:48.741Z,7.00
2023-01-29T05:58:41.775Z,5.90
2023-01-29T06:03:34.556Z,6.50
2023-01-29T06:08:27.350Z,6.20
2023-01-29T06:13:23.732Z,5.80
2023-01-29T06:18:16.645Z,6.90
2023-01-29T06:23:09.475Z,6.00
2023-01-29T06:28:03.525Z,8.40
2023-01-29T06:33:03.100Z,7.00
2023-01-29T06:37:55.865Z,7.60
2023-01-29T06:42:51.500Z,6.80
2023-01-29T06:47:44.329Z,7.40
2023-01-29T06:52:37.114Z,8.40
2023-01-29T06:57:31.073Z,7.00
2023-01-29T07:02:23.919Z,7.00
2023-01-29T07:07:16.789Z,7.30
2023-01-29T07:12:11.117Z,7.30
2023-01-29T07:17:05.025Z,6.60
2023-01-29T07:21:58.165Z,7.20
2023-01-29T07:26:50.945Z,7.10
2023-01-29T07:31:43.808Z,7.40
2023-01-29T07:36:37.384Z,5.10
2023-01-29T07:41:30.187Z,6.40
2023-01-29T07:46:25.662Z,5.70
2023-01-29T07:51:18.697Z,5.90
2023-01-29T07:56:11.601Z,5.90
2023-01-29T08:01:08.690Z,6.70
2023-01-29T08:06:01.529Z,6.10
2023-01-29T08:10:54.342Z,6.10
2023-01-29T08:15:47.305Z,6.20
2023-01-29T08:20:40.230Z,6.60
2023-01-29T08:25:33.638Z,4.90
2023-01-29T08:30:28.924Z,6.60
2023-01-29T08:35:22.002Z,6.10
2023-01-29T08:40:15.557Z,5.00
2023-01-29T08:45:09.388Z,6.50
2023-01-29T08:50:02.447Z,6.20
2023-01-29T08:54:55.317Z,7.80
2023-01-29T08:59:48.086Z,6.00
2023-01-29T09:04:40.893Z,7.30
2023-01-29T09:09:33.664Z,6.40
2023-01-29T09:14:27.828Z,7.20
2023-01-29T09:19:21.601Z,7.00
2023-01-29T09:24:14.474Z,5.60
2023-01-29T09:29:08.246Z,7.20
2023-01-29T09:34:01.664Z,6.90
2023-01-29T09:38:54.601Z,6.70
2023-01-29T09:43:53.165Z,6.80
2023-01-29T09:48:47.556Z,7.30
2023-01-29T09:53:59.828Z,7.00
2023-01-29T09:58:53.181Z,7.20
2023-01-29T10:04:04.816Z,7.80
2023-01-29T10:09:13.139Z,6.90
2023-01-29T10:14:19.989Z,7.80
2023-01-29T10:19:19.395Z,7.20
2023-01-29T10:24:24.560Z,7.50
2023-01-29T10:29:22.204Z,7.70
2023-01-29T10:34:15.003Z,8.10
2023-01-29T10:39:19.876Z,7.20
2023-01-29T10:44:31.589Z,7.70
2023-01-29T10:49:27.267Z,7.20
2023-01-29T10:55:01.770Z,7.70
2023-01-29T11:00:13.241Z,7.10
2023-01-29T11:05:22.209Z,6.90
2023-01-29T11:10:23.559Z,7.80
2023-01-29T11:15:34.975Z,7.90
2023-01-29T11:20:29.735Z,7.30
2023-01-29T11:25:23.420Z,8.40
2023-01-29T11:30:29.088Z,8.50
2023-01-29T11:35:25.032Z,7.60
2023-01-29T11:40:22.451Z,6.90
2023-01-29T11:45:21.380Z,9.00
2023-01-29T11:50:23.268Z,9.20
2023-01-29T11:55:23.429Z,8.40
2023-01-29T12:00:24.262Z,8.70
2023-01-29T12:05:21.287Z,8.20
2023-01-29T12:10:34.258Z,9.50
2023-01-29T12:15:27.326Z,8.60
2023-01-29T12:20:28.257Z,7.20
2023-01-29T12:25:37.871Z,7.70
2023-01-29T12:30:55.582Z,8.50
2023-01-29T12:35:57.728Z,8.90
2023-01-29T12:41:10.150Z,9.00
2023-01-29T12:46:03.904Z,9.20
2023-01-29T12:51:05.095Z,9.40
2023-01-29T12:56:06.953Z,9.50
2023-01-29T13:01:10.069Z,9.40
2023-01-29T13:06:11.356Z,10.30
2023-01-29T13:11:09.856Z,8.60
2023-01-29T13:16:08.206Z,9.80
2023-01-29T13:21:02.315Z,9.60
2023-01-29T13:25:55.740Z,8.40
2023-01-29T13:30:49.264Z,10.30
2023-01-29T13:35:44.850Z,9.20
2023-01-29T13:40:38.600Z,10.20
2023-01-29T13:45:37.406Z,9.40
2023-01-29T13:50:38.667Z,8.80
2023-01-29T13:55:40.057Z,9.70
2023-01-29T14:00:35.675Z,9.80
2023-01-29T14:05:31.738Z,11.60
2023-01-29T14:10:25.704Z,9.50
2023-01-29T14:15:30.901Z,11.50
2023-01-29T14:20:50.116Z,11.00
2023-01-29T14:25:43.110Z,9.40
2023-01-29T14:30:36.727Z,9.60
2023-01-29T14:35:33.868Z,10.80
2023-01-29T14:40:29.836Z,10.30
2023-01-29T14:45:28.452Z,11.50
2023-01-29T14:50:32.016Z,11.00
2023-01-29T14:55:28.657Z,10.80
2023-01-29T15:00:43.775Z,12.40
2023-01-29T15:05:38.771Z,10.10
2023-01-29T15:10:43.950Z,10.30
2023-01-29T15:15:44.996Z,13.70
2023-01-29T15:20:40.956Z,12.40
2023-01-29T15:25:47.637Z,12.20
2023-01-29T15:30:43.328Z,13.10
2023-01-29T15:35:41.980Z,11.30
2023-01-29T15:40:36.371Z,13.40
2023-01-29T15:45:34.588Z,13.00
2023-01-29T15:50:27.494Z,10.90
2023-01-29T15:55:24.503Z,12.70
2023-01-29T16:00:29.763Z,12.50
2023-01-29T16:05:33.769Z,11.50
2023-01-29T16:10:32.442Z,12.20
2023-01-29T16:15:35.007Z,10.30
2023-01-29T16:20:36.560Z,9.80
2023-01-29T16:25:31.597Z,12.10
2023-01-29T16:30:28.052Z,12.30
2023-01-29T16:35:21.141Z,14.30
2023-01-29T16:40:26.046Z,13.90
2023-01-29T16:45:30.366Z,13.70
2023-01-29T16:50:46.279Z,14.10
2023-01-29T16:55:49.875Z,15.20
2023-01-29T17:01:10.812Z,15.80
2023-01-29T17:06:14.100Z,10.40
2023-01-29T17:11:07.662Z,15.50
2023-01-29T17:16:03.901Z,14.70
2023-01-29T17:20:56.930Z,16.50
2023-01-29T17:25:50.273Z,16.20
2023-01-29T17:30:46.440Z,16.20
2023-01-29T17:35:45.825Z,15.60
2023-01-29T17:40:51.073Z,14.40
2023-01-29T17:45:44.206Z,17.50
2023-01-29T17:50:41.162Z,19.50
2023-01-29T17:55:33.965Z,17.50
2023-01-29T18:00:26.807Z,17.00
2023-01-29T18:05:20.377Z,18.10
2023-01-29T18:10:22.130Z,19.40
2023-01-29T18:15:16.051Z,18.40
2023-01-29T18:20:18.910Z,18.30
2023-01-29T18:25:12.003Z,17.90
2023-01-29T18:30:06.115Z,19.60
2023-01-29T18:34:59.050Z,17.80
2023-01-29T18:39:52.572Z,19.50
2023-01-29T18:44:45.514Z,18.40
2023-01-29T18:49:39.385Z,20.30
2023-01-29T18:54:32.218Z,19.60
2023-01-29T18:59:25.026Z,21.30
2023-01-29T19:04:18.453Z,21.50
2023-01-29T19:09:11.589Z,21.40
2023-01-29T19:14:05.222Z,19.20
2023-01-29T19:18:59.158Z,21.10
2023-01-29T19:23:52.119Z,21.00
2023-01-29T19:28:45.040Z,18.70
2023-01-29T19:33:39.116Z,18.40
2023-01-29T19:38:38.061Z,21.90
2023-01-29T19:43:31.905Z,18.80
2023-01-29T19:48:26.550Z,21.30
2023-01-29T19:53:19.479Z,20.50
2023-01-29T19:58:12.553Z,19.20
2023-01-29T20:03:05.363Z,20.60
2023-01-29T20:07:58.169Z,18.30
2023-01-29T20:12:50.984Z,16.30
2023-01-29T20:17:45.561Z,20.30
2023-01-29T20:22:38.359Z,19.30
2023-01-29T20:27:31.161Z,20.10
2023-01-29T20:32:24.233Z,18.40
2023-01-29T20:37:16.981Z,20.80
2023-01-29T20:42:09.821Z,21.30
2023-01-29T20:47:02.783Z,20.00
2023-01-29T20:51:55.745Z,24.50
2023-01-29T20:56:48.747Z,19.40
2023-01-29T21:01:42.723Z,19.00
2023-01-29T21:06:35.623Z,21.40
2023-01-29T21:11:28.694Z,20.20
2023-01-29T21:16:21.857Z,18.80
2023-01-29T21:21:14.696Z,20.10
2023-01-29T21:26:08.765Z,19.60
2023-01-29T21:31:11.346Z,19.90
2023-01-29T21:36:05.467Z,19.80
2023-01-29T21:41:07.284Z,20.30
2023-01-29T21:46:03.998Z,19.90
2023-01-29T21:50:57.507Z,20.80
2023-01-29T21:55:50.360Z,19.60
2023-01-29T22:00:43.221Z,19.40
2023-01-29T22:05:36.197Z,20.30
2023-01-29T22:10:29.161Z,20.30
2023-01-29T22:15:23.924Z,18.50
2023-01-29T22:20:17.740Z,20.00
2023-01-29T22:25:11.148Z,19.60
2023-01-29T22:30:05.501Z,20.00
2023-01-29T22:34:58.574Z,18.60
2023-01-29T22:39:52.918Z,17.30
2023-01-29T22:44:46.293Z,20.50
2023-01-29T22:49:42.234Z,19.80
2023-01-29T22:54:35.037Z,17.90
2023-01-29T22:59:30.132Z,19.80
2023-01-29T23:04:23.122Z,19.00
2023-01-29T23:09:16.043Z,19.90
2023-01-29T23:14:08.952Z,18.30
2023-01-29T23:19:01.862Z,16.90
2023-01-29T23:23:55.566Z,19.10
2023-01-29T23:28:49.469Z,17.60
2023-01-29T23:33:42.385Z,18.90
2023-01-29T23:38:37.809Z,18.00
2023-01-29T23:43:31.508Z,18.00
2023-01-29T23:48:24.809Z,17.90
2023-01-29T23:53:20.106Z,15.50
2023-01-29T23:58:12.918Z,17.30
